Terminal Aerodrome Forecast
Issued by NWS

Current Version | Previous Version | Text Only | Print | Product List | Glossary On
Versions: 1 2 3 4 5 6 7 8 9 10 11 12
679
FTUS44 KEPZ 101124
TAFTCS
TAF
KTCS 101124Z 1012/1112 32005KT P6SM SKC
     FM101800 15005KT P6SM FEW250
     FM110400 31007KT P6SM FEW250=

USA.gov is the U.S. government's official web portal to all federal, state and local government web resources and services.